createdAt,value
2019-04-16T00:00:17.888Z,31.59
2019-04-16T00:01:17.909Z,31.91
2019-04-16T00:02:18.805Z,31.91
2019-04-16T00:03:20.354Z,31.70
2019-04-16T00:04:17.865Z,31.71
2019-04-16T00:05:18.247Z,31.49
2019-04-16T00:06:17.821Z,31.81
2019-04-16T00:07:17.827Z,31.71
2019-04-16T00:08:27.843Z,31.70
2019-04-16T00:09:17.806Z,31.70
2019-04-16T00:10:17.783Z,31.61
2019-04-16T00:11:17.769Z,31.71
2019-04-16T00:12:17.770Z,31.61
2019-04-16T00:13:17.766Z,31.31
2019-04-16T00:14:17.733Z,31.81
2019-04-16T00:15:17.727Z,31.71
2019-04-16T00:16:17.740Z,31.61
2019-04-16T00:17:17.718Z,31.71
2019-04-16T00:18:18.789Z,31.31
2019-04-16T00:19:17.695Z,31.91
2019-04-16T00:20:17.693Z,32.11
2019-04-16T00:21:17.659Z,31.71
2019-04-16T00:22:17.635Z,31.41
2019-04-16T00:23:17.631Z,31.31
2019-04-16T00:24:18.591Z,31.61
2019-04-16T00:25:17.605Z,31.61
2019-04-16T00:26:17.640Z,31.61
2019-04-16T00:27:17.586Z,31.71
2019-04-16T00:28:17.597Z,31.61
2019-04-16T00:29:17.577Z,31.71
2019-04-16T00:30:17.613Z,31.71
2019-04-16T00:31:17.689Z,31.61
2019-04-16T00:32:17.566Z,31.31
2019-04-16T00:33:17.546Z,31.81
2019-04-16T00:34:17.532Z,32.01
2019-04-16T00:35:17.495Z,31.81
2019-04-16T00:36:18.184Z,31.71
2019-04-16T00:37:20.393Z,31.71
2019-04-16T00:38:17.517Z,31.71
2019-04-16T00:39:17.499Z,31.71
2019-04-16T00:40:17.441Z,31.71
2019-04-16T00:41:17.441Z,31.71
2019-04-16T00:42:17.423Z,31.71
2019-04-16T00:43:17.411Z,32.01
2019-04-16T00:44:17.421Z,32.11
2019-04-16T00:45:17.390Z,32.01
2019-04-16T00:46:17.430Z,31.61
2019-04-16T00:47:17.430Z,32.01
2019-04-16T00:48:17.375Z,31.71
2019-04-16T00:49:17.349Z,32.11
2019-04-16T00:50:17.367Z,31.91
2019-04-16T00:51:17.365Z,32.11
2019-04-16T00:52:18.373Z,31.81
2019-04-16T00:53:17.301Z,31.61
2019-04-16T00:54:17.289Z,31.71
2019-04-16T00:55:17.313Z,32.01
2019-04-16T00:56:17.311Z,32.01
2019-04-16T00:57:18.002Z,31.61
2019-04-16T00:58:19.828Z,32.11
2019-04-16T00:59:17.256Z,32.21
2019-04-16T01:00:17.225Z,31.61
2019-04-16T01:01:17.226Z,31.61
2019-04-16T01:02:17.215Z,32.01
2019-04-16T01:03:17.234Z,32.01
2019-04-16T01:04:17.217Z,31.71
2019-04-16T01:05:17.170Z,31.71
2019-04-16T01:06:17.163Z,31.41
2019-04-16T01:07:17.152Z,31.73
2019-04-16T01:08:17.166Z,31.71
2019-04-16T01:09:17.129Z,31.71
2019-04-16T01:10:17.138Z,32.01
2019-04-16T01:11:17.107Z,31.52
2019-04-16T01:12:17.125Z,32.03
2019-04-16T01:13:17.083Z,32.41
2019-04-16T01:14:17.084Z,32.11
2019-04-16T01:15:17.063Z,31.61
2019-04-16T01:16:17.051Z,32.01
2019-04-16T01:17:17.069Z,31.61
2019-04-16T01:18:17.066Z,32.03
2019-04-16T01:19:17.054Z,31.61
2019-04-16T01:20:17.013Z,32.11
2019-04-16T01:21:17.027Z,31.61
2019-04-16T01:22:17.042Z,32.01
2019-04-16T01:23:18.491Z,32.11
2019-04-16T01:24:17.581Z,32.23
2019-04-16T01:25:16.997Z,31.61
2019-04-16T01:26:16.945Z,31.73
2019-04-16T01:27:16.976Z,31.61
2019-04-16T01:28:16.951Z,32.03
2019-04-16T01:29:16.947Z,31.62
2019-04-16T01:30:16.906Z,32.21
2019-04-16T01:31:16.934Z,32.23
2019-04-16T01:32:16.891Z,32.03
2019-04-16T01:33:16.875Z,32.01
2019-04-16T01:34:18.112Z,32.43
2019-04-16T01:35:19.104Z,32.11
2019-04-16T01:36:16.832Z,31.93
2019-04-16T01:37:16.852Z,32.23
2019-04-16T01:38:16.868Z,32.01
2019-04-16T01:39:18.284Z,31.62
2019-04-16T01:40:18.658Z,32.03
2019-04-16T01:41:21.729Z,32.12
2019-04-16T01:42:16.789Z,31.62
2019-04-16T01:43:16.800Z,31.62
2019-04-16T01:44:16.751Z,31.62
2019-04-16T01:45:16.735Z,32.03
2019-04-16T01:46:16.729Z,32.12
2019-04-16T01:47:16.750Z,32.12
2019-04-16T01:48:16.802Z,31.52
2019-04-16T01:49:16.737Z,31.73
2019-04-16T01:50:16.726Z,32.43
2019-04-16T01:51:16.676Z,32.03
2019-04-16T01:52:19.036Z,31.62
2019-04-16T01:53:18.328Z,31.62
2019-04-16T01:54:16.670Z,32.03
2019-04-16T01:55:16.633Z,32.12
2019-04-16T01:56:16.654Z,32.03
2019-04-16T01:57:16.626Z,31.93
2019-04-16T01:58:16.912Z,32.23
2019-04-16T01:59:16.587Z,31.62
2019-04-16T02:00:16.620Z,32.12
2019-04-16T02:01:16.570Z,31.62
2019-04-16T02:02:16.589Z,31.52
2019-04-16T02:03:17.790Z,31.73
2019-04-16T02:04:19.628Z,31.73
2019-04-16T02:05:16.552Z,32.12
2019-04-16T02:06:16.542Z,32.12
2019-04-16T02:07:16.561Z,31.62
2019-04-16T02:08:16.491Z,32.12
2019-04-16T02:09:22.717Z,32.11
2019-04-16T02:10:16.487Z,31.73
2019-04-16T02:11:16.488Z,31.73
2019-04-16T02:12:16.483Z,31.62
2019-04-16T02:13:16.477Z,32.03
2019-04-16T02:14:17.975Z,31.73
2019-04-16T02:15:16.426Z,31.73
2019-04-16T02:16:16.408Z,31.73
2019-04-16T02:17:16.429Z,32.12
2019-04-16T02:18:16.388Z,31.93
2019-04-16T02:19:16.375Z,31.62
2019-04-16T02:20:16.364Z,32.03
2019-04-16T02:21:16.391Z,31.52
2019-04-16T02:22:16.355Z,32.23
2019-04-16T02:23:17.356Z,32.12
2019-04-16T02:24:18.818Z,32.12
2019-04-16T02:25:19.097Z,31.62
2019-04-16T02:26:16.328Z,31.73
2019-04-16T02:27:16.299Z,31.73
2019-04-16T02:28:16.298Z,32.23
2019-04-16T02:29:16.279Z,31.82
2019-04-16T02:30:16.264Z,32.12
2019-04-16T02:31:16.506Z,32.12
2019-04-16T02:32:16.242Z,32.03
2019-04-16T02:33:16.259Z,31.73
2019-04-16T02:34:16.225Z,32.12
2019-04-16T02:35:16.215Z,32.03
2019-04-16T02:36:16.192Z,31.73
2019-04-16T02:37:16.208Z,32.12
2019-04-16T02:38:16.174Z,31.82
2019-04-16T02:39:16.156Z,31.93
2019-04-16T02:40:18.299Z,31.43
2019-04-16T02:41:16.156Z,31.62
2019-04-16T02:42:16.128Z,31.73
2019-04-16T02:43:16.133Z,31.91
2019-04-16T02:44:17.182Z,31.73
2019-04-16T02:45:22.643Z,31.32
2019-04-16T02:46:16.090Z,31.32
2019-04-16T02:47:16.655Z,31.93
2019-04-16T02:48:17.362Z,31.73
2019-04-16T02:49:16.048Z,31.73
2019-04-16T02:50:16.093Z,31.73
2019-04-16T02:51:16.061Z,31.32
2019-04-16T02:52:17.316Z,32.03
2019-04-16T02:53:16.018Z,31.73
2019-04-16T02:54:15.995Z,31.73
2019-04-16T02:55:16.018Z,31.62
2019-04-16T02:56:18.773Z,31.73
2019-04-16T02:57:16.003Z,31.73
2019-04-16T02:58:15.966Z,31.62
2019-04-16T02:59:15.973Z,31.52
2019-04-16T03:00:18.408Z,31.73
2019-04-16T03:01:20.426Z,31.52
2019-04-16T03:02:15.915Z,31.73
2019-04-16T03:03:15.913Z,31.52
2019-04-16T03:04:15.898Z,31.73
2019-04-16T03:05:15.880Z,31.73
2019-04-16T03:06:15.895Z,31.73
2019-04-16T03:07:15.861Z,31.62
2019-04-16T03:08:15.875Z,31.73
2019-04-16T03:09:15.876Z,31.62
2019-04-16T03:10:15.857Z,31.62
2019-04-16T03:11:17.319Z,31.32
2019-04-16T03:12:17.617Z,31.43
2019-04-16T03:13:15.802Z,31.43
2019-04-16T03:14:15.805Z,31.43
2019-04-16T03:15:15.787Z,31.52
2019-04-16T03:16:15.814Z,31.52
2019-04-16T03:17:15.752Z,31.73
2019-04-16T03:18:16.203Z,31.32
2019-04-16T03:19:18.881Z,31.32
2019-04-16T03:20:15.738Z,31.43
2019-04-16T03:21:15.716Z,31.43
2019-04-16T03:22:15.700Z,31.52
2019-04-16T03:23:15.699Z,31.52
2019-04-16T03:24:15.688Z,31.32
2019-04-16T03:25:15.670Z,31.43
2019-04-16T03:26:17.554Z,31.62
2019-04-16T03:27:15.643Z,31.52
2019-04-16T03:28:15.639Z,31.32
2019-04-16T03:29:15.618Z,31.52
2019-04-16T03:30:15.746Z,31.52
2019-04-16T03:31:22.135Z,31.43
2019-04-16T03:32:15.805Z,31.43
2019-04-16T03:33:16.033Z,31.43
2019-04-16T03:34:15.571Z,31.54
2019-04-16T03:35:15.562Z,31.32
2019-04-16T03:36:15.548Z,31.43
2019-04-16T03:37:15.549Z,31.43
2019-04-16T03:38:15.556Z,31.52
2019-04-16T03:39:15.780Z,31.43
2019-04-16T03:40:18.502Z,31.43
2019-04-16T03:41:15.507Z,31.43
2019-04-16T03:42:15.490Z,31.73
2019-04-16T03:43:15.867Z,31.43
2019-04-16T03:44:15.481Z,30.93
2019-04-16T03:45:15.471Z,31.52
2019-04-16T03:46:15.440Z,31.43
2019-04-16T03:47:18.692Z,31.52
2019-04-16T03:48:15.541Z,31.43
2019-04-16T03:49:15.402Z,31.32
2019-04-16T03:50:15.397Z,31.52
2019-04-16T03:51:15.390Z,31.43
2019-04-16T03:52:15.378Z,31.43
2019-04-16T03:53:17.526Z,31.43
2019-04-16T03:54:15.358Z,31.44
2019-04-16T03:55:15.341Z,31.43
2019-04-16T03:56:15.349Z,31.43
2019-04-16T03:57:15.324Z,31.52
2019-04-16T03:58:15.341Z,31.43
2019-04-16T03:59:15.339Z,31.32
2019-04-16T04:00:15.344Z,31.43
2019-04-16T04:01:15.746Z,31.43
2019-04-16T04:02:18.928Z,31.32
2019-04-16T04:03:15.461Z,31.43
2019-04-16T04:04:15.468Z,31.43
2019-04-16T04:05:15.236Z,31.43
2019-04-16T04:06:15.255Z,31.32
2019-04-16T04:07:15.205Z,31.23
2019-04-16T04:08:17.603Z,31.32
2019-04-16T04:09:15.194Z,31.12
2019-04-16T04:10:29.018Z,31.23
2019-04-16T04:11:15.171Z,31.32
2019-04-16T04:12:15.156Z,31.44
2019-04-16T04:13:18.642Z,31.34
2019-04-16T04:14:15.143Z,31.43
2019-04-16T04:15:15.133Z,31.44
2019-04-16T04:16:15.123Z,31.43
2019-04-16T04:17:15.132Z,31.43
2019-04-16T04:18:15.083Z,30.93
2019-04-16T04:19:15.989Z,31.02
2019-04-16T04:20:18.117Z,31.14
2019-04-16T04:21:15.064Z,31.24
2019-04-16T04:22:15.103Z,31.43
2019-04-16T04:23:15.044Z,30.93
2019-04-16T04:24:15.051Z,31.24
2019-04-16T04:25:15.016Z,31.43
2019-04-16T04:26:15.025Z,30.94
2019-04-16T04:27:18.724Z,31.44
2019-04-16T04:28:18.517Z,31.23
2019-04-16T04:29:14.980Z,31.43
2019-04-16T04:30:14.963Z,31.04
2019-04-16T04:31:15.196Z,31.14
2019-04-16T04:32:15.215Z,31.44
2019-04-16T04:33:15.115Z,31.54
2019-04-16T04:34:17.152Z,31.23
2019-04-16T04:35:20.586Z,31.43
2019-04-16T04:36:14.902Z,31.02
2019-04-16T04:37:14.894Z,31.94
2019-04-16T04:38:14.885Z,31.23
2019-04-16T04:39:15.874Z,31.14
2019-04-16T04:40:16.154Z,31.43
2019-04-16T04:41:14.857Z,30.93
2019-04-16T04:42:14.863Z,31.23
2019-04-16T04:43:14.825Z,31.44
2019-04-16T04:44:14.817Z,31.14
2019-04-16T04:45:14.808Z,31.44
2019-04-16T04:46:15.582Z,31.44
2019-04-16T04:47:17.871Z,31.43
2019-04-16T04:48:14.784Z,30.94
2019-04-16T04:49:14.762Z,31.12
2019-04-16T04:50:14.745Z,31.44
2019-04-16T04:51:14.740Z,30.94
2019-04-16T04:52:15.151Z,31.44
2019-04-16T04:53:15.648Z,31.12
2019-04-16T04:54:14.722Z,31.04
2019-04-16T04:55:14.697Z,30.94
2019-04-16T04:56:14.703Z,31.14
2019-04-16T04:57:14.831Z,31.23
2019-04-16T04:58:14.663Z,31.14
2019-04-16T04:59:14.882Z,30.94
2019-04-16T05:00:14.822Z,31.24
2019-04-16T05:01:14.872Z,31.24
2019-04-16T05:02:15.442Z,31.24
2019-04-16T05:03:15.888Z,31.04
2019-04-16T05:04:18.954Z,31.04
2019-04-16T05:05:14.582Z,31.04
2019-04-16T05:06:14.597Z,31.14
2019-04-16T05:07:14.583Z,31.24
2019-04-16T05:08:14.555Z,31.14
2019-04-16T05:09:14.563Z,31.64
2019-04-16T05:10:14.535Z,30.94
2019-04-16T05:11:15.831Z,31.14
2019-04-16T05:12:14.509Z,30.94
2019-04-16T05:13:14.496Z,31.04
2019-04-16T05:14:14.492Z,31.14
2019-04-16T05:15:14.630Z,30.94
2019-04-16T05:16:14.467Z,30.94
2019-04-16T05:17:14.493Z,31.44
2019-04-16T05:18:14.444Z,31.34
2019-04-16T05:19:15.646Z,31.14
2019-04-16T05:20:15.391Z,31.44
2019-04-16T05:21:17.774Z,30.94
2019-04-16T05:22:14.529Z,30.94
2019-04-16T05:23:14.399Z,31.44
2019-04-16T05:24:14.394Z,30.94
2019-04-16T05:25:14.385Z,31.14
2019-04-16T05:26:14.354Z,31.14
2019-04-16T05:27:14.348Z,31.14
2019-04-16T05:28:14.338Z,30.94
2019-04-16T05:29:17.154Z,30.94
2019-04-16T05:30:14.362Z,30.94
2019-04-16T05:31:14.420Z,31.14
2019-04-16T05:32:14.288Z,31.04
2019-04-16T05:33:14.322Z,31.04
2019-04-16T05:34:17.331Z,30.94
2019-04-16T05:35:14.265Z,31.24
2019-04-16T05:36:15.411Z,30.94
2019-04-16T05:37:18.980Z,31.14
2019-04-16T05:38:14.302Z,31.04
2019-04-16T05:39:14.222Z,31.64
2019-04-16T05:40:14.225Z,31.44
2019-04-16T05:41:20.377Z,31.14
2019-04-16T05:42:14.185Z,31.14
2019-04-16T05:43:14.167Z,31.44
2019-04-16T05:44:14.186Z,31.34
2019-04-16T05:45:14.170Z,31.74
2019-04-16T05:46:14.145Z,31.34
2019-04-16T05:47:16.758Z,31.44
2019-04-16T05:48:14.125Z,31.34
2019-04-16T05:49:14.103Z,31.44
2019-04-16T05:50:14.362Z,31.54
2019-04-16T05:51:14.117Z,31.54
2019-04-16T05:52:14.083Z,31.74
2019-04-16T05:53:14.079Z,31.44
2019-04-16T05:54:14.060Z,31.54
2019-04-16T05:55:18.065Z,31.44
2019-04-16T05:56:14.050Z,31.44
2019-04-16T05:57:14.041Z,31.44
2019-04-16T05:58:14.013Z,31.44
2019-04-16T05:59:14.004Z,31.34
2019-04-16T06:00:14.091Z,31.34
2019-04-16T06:01:14.404Z,31.44
2019-04-16T06:02:15.120Z,31.34
2019-04-16T06:03:14.143Z,31.54
2019-04-16T06:04:13.945Z,31.64
2019-04-16T06:05:13.938Z,31.34
2019-04-16T06:06:13.934Z,31.54
2019-04-16T06:07:13.931Z,31.54
2019-04-16T06:08:13.904Z,31.54
2019-04-16T06:09:13.905Z,31.54
2019-04-16T06:10:17.856Z,31.44
2019-04-16T06:11:27.468Z,31.54
2019-04-16T06:12:14.117Z,31.44
2019-04-16T06:13:13.885Z,31.24
2019-04-16T06:14:17.518Z,31.04
2019-04-16T06:15:13.879Z,31.44
2019-04-16T06:16:13.824Z,31.44
2019-04-16T06:17:13.819Z,31.54
2019-04-16T06:18:16.028Z,31.94
2019-04-16T06:19:14.010Z,31.64
2019-04-16T06:20:19.170Z,31.74
2019-04-16T06:21:13.795Z,31.24
2019-04-16T06:22:13.759Z,31.44
2019-04-16T06:23:13.751Z,31.44
2019-04-16T06:24:13.740Z,31.54
2019-04-16T06:25:13.742Z,31.74
2019-04-16T06:26:16.085Z,31.44
2019-04-16T06:27:13.699Z,31.74
2019-04-16T06:28:13.703Z,31.44
2019-04-16T06:29:13.740Z,31.44
2019-04-16T06:30:13.667Z,31.94
2019-04-16T06:31:13.664Z,31.44
2019-04-16T06:32:13.646Z,31.54
2019-04-16T06:33:13.712Z,31.54
2019-04-16T06:34:13.876Z,31.54
2019-04-16T06:35:14.108Z,31.54
2019-04-16T06:36:13.837Z,31.74
2019-04-16T06:37:13.604Z,31.74
2019-04-16T06:38:13.613Z,31.54
2019-04-16T06:39:13.560Z,31.54
2019-04-16T06:40:13.581Z,31.56
2019-04-16T06:41:13.549Z,31.44
2019-04-16T06:42:13.541Z,31.44
2019-04-16T06:43:13.644Z,31.54
2019-04-16T06:44:13.518Z,31.46
2019-04-16T06:45:13.504Z,31.54
2019-04-16T06:46:13.512Z,31.44
2019-04-16T06:47:13.481Z,31.94
2019-04-16T06:48:13.968Z,31.74
2019-04-16T06:49:14.338Z,31.54
2019-04-16T06:50:13.460Z,31.44
2019-04-16T06:51:13.440Z,31.54
2019-04-16T06:52:16.597Z,31.54
2019-04-16T06:53:13.418Z,31.54
2019-04-16T06:54:13.421Z,31.44
2019-04-16T06:55:13.421Z,31.44
2019-04-16T06:56:13.525Z,30.94
2019-04-16T06:57:13.411Z,31.44
2019-04-16T06:58:16.568Z,31.44
2019-04-16T06:59:16.739Z,31.44
2019-04-16T07:00:13.355Z,31.44
2019-04-16T07:01:13.370Z,31.54
2019-04-16T07:02:13.349Z,31.54
2019-04-16T07:03:13.310Z,31.74
2019-04-16T07:04:13.327Z,31.44
2019-04-16T07:05:13.302Z,31.24
2019-04-16T07:06:13.300Z,31.44
2019-04-16T07:07:13.261Z,31.44
2019-04-16T07:08:17.772Z,31.74
2019-04-16T07:09:13.253Z,31.74
2019-04-16T07:10:13.241Z,31.44
2019-04-16T07:11:13.222Z,31.64
2019-04-16T07:12:13.217Z,31.54
2019-04-16T07:13:13.204Z,31.44
2019-04-16T07:14:15.612Z,31.44
2019-04-16T07:15:13.276Z,31.44
2019-04-16T07:16:13.187Z,31.34
2019-04-16T07:17:13.198Z,31.44
2019-04-16T07:18:13.160Z,31.34
2019-04-16T07:19:13.167Z,31.44
2019-04-16T07:20:14.231Z,31.44
2019-04-16T07:21:14.535Z,31.74
2019-04-16T07:22:13.114Z,31.44
2019-04-16T07:23:13.109Z,31.14
2019-04-16T07:24:13.091Z,31.24
2019-04-16T07:25:13.527Z,31.44
2019-04-16T07:26:14.796Z,31.46
2019-04-16T07:27:13.118Z,30.94
2019-04-16T07:28:13.063Z,31.24
2019-04-16T07:29:13.136Z,31.44
2019-04-16T07:30:13.023Z,31.54
2019-04-16T07:31:16.569Z,31.34
2019-04-16T07:32:13.019Z,31.44
2019-04-16T07:33:12.999Z,31.54
2019-04-16T07:34:12.976Z,31.46
2019-04-16T07:35:13.029Z,31.24
2019-04-16T07:36:12.996Z,31.24
2019-04-16T07:37:12.944Z,31.44
2019-04-16T07:38:12.940Z,31.94
2019-04-16T07:39:13.535Z,31.44
2019-04-16T07:40:12.953Z,31.46
2019-04-16T07:41:12.991Z,31.34
2019-04-16T07:42:20.941Z,30.94
2019-04-16T07:43:15.561Z,31.44
2019-04-16T07:44:12.874Z,31.44
2019-04-16T07:45:13.231Z,31.74
2019-04-16T07:46:12.856Z,31.54
2019-04-16T07:47:19.679Z,31.74
2019-04-16T07:48:12.844Z,31.44
2019-04-16T07:49:12.814Z,31.56
2019-04-16T07:50:12.806Z,31.44
2019-04-16T07:51:12.797Z,31.44
2019-04-16T07:52:12.796Z,31.54
2019-04-16T07:53:14.282Z,31.74
2019-04-16T07:54:12.781Z,31.54
2019-04-16T07:55:12.901Z,31.44
2019-04-16T07:56:12.739Z,31.44
2019-04-16T07:57:12.734Z,31.54
2019-04-16T07:58:12.720Z,31.54
2019-04-16T07:59:12.707Z,31.64
2019-04-16T08:00:12.689Z,31.44
2019-04-16T08:01:16.228Z,31.56
2019-04-16T08:02:12.673Z,31.44
2019-04-16T08:03:12.660Z,31.44
2019-04-16T08:04:12.670Z,31.44
2019-04-16T08:05:12.660Z,31.46
2019-04-16T08:06:14.373Z,31.64
2019-04-16T08:07:12.634Z,31.44
2019-04-16T08:08:12.603Z,31.44
2019-04-16T08:09:12.587Z,31.64
2019-04-16T08:10:12.609Z,31.74
2019-04-16T08:11:12.592Z,31.74
2019-04-16T08:12:28.938Z,31.54
2019-04-16T08:13:14.155Z,31.44
2019-04-16T08:14:14.657Z,31.44
2019-04-16T08:15:15.224Z,31.44
2019-04-16T08:16:12.528Z,31.54
2019-04-16T08:17:12.524Z,31.35
2019-04-16T08:18:12.570Z,31.54
2019-04-16T08:19:15.212Z,31.54
2019-04-16T08:20:12.478Z,31.54
2019-04-16T08:21:13.559Z,31.44
2019-04-16T08:22:15.495Z,31.44
2019-04-16T08:23:12.464Z,31.46
2019-04-16T08:24:12.492Z,31.74
2019-04-16T08:25:12.420Z,31.44
2019-04-16T08:26:13.807Z,31.64
2019-04-16T08:27:18.010Z,31.34
2019-04-16T08:28:12.408Z,31.44
2019-04-16T08:29:12.950Z,31.24
2019-04-16T08:30:12.380Z,31.44
2019-04-16T08:31:13.250Z,31.24
2019-04-16T08:32:12.880Z,31.44
2019-04-16T08:33:12.338Z,31.44
2019-04-16T08:34:12.328Z,31.54
2019-04-16T08:35:12.342Z,31.44
2019-04-16T08:36:12.358Z,31.46
2019-04-16T08:37:13.366Z,31.44
2019-04-16T08:38:12.301Z,31.44
2019-04-16T08:39:12.265Z,31.44
2019-04-16T08:40:13.147Z,31.44
2019-04-16T08:41:13.221Z,31.44
2019-04-16T08:42:12.269Z,31.54
2019-04-16T08:43:12.254Z,31.34
2019-04-16T08:44:12.213Z,31.44
2019-04-16T08:45:12.207Z,31.46
2019-04-16T08:46:12.208Z,31.44
2019-04-16T08:47:12.977Z,31.44
2019-04-16T08:48:17.003Z,31.44
2019-04-16T08:49:14.812Z,31.44
2019-04-16T08:50:12.644Z,31.64
2019-04-16T08:51:12.183Z,31.34
2019-04-16T08:52:12.163Z,31.64
2019-04-16T08:53:14.251Z,31.44
2019-04-16T08:54:12.115Z,31.44
2019-04-16T08:55:12.122Z,31.64
2019-04-16T08:56:12.167Z,31.44
2019-04-16T08:57:12.082Z,31.44
2019-04-16T08:58:12.856Z,31.54
2019-04-16T08:59:12.150Z,31.34
2019-04-16T09:00:15.247Z,31.44
2019-04-16T09:01:12.049Z,31.46
2019-04-16T09:02:12.029Z,31.44
2019-04-16T09:03:15.231Z,31.44
2019-04-16T09:04:12.010Z,31.44
2019-04-16T09:05:12.037Z,31.64
2019-04-16T09:06:13.636Z,31.44
2019-04-16T09:07:13.403Z,31.34
2019-04-16T09:08:13.742Z,31.44
2019-04-16T09:09:16.613Z,31.44
2019-04-16T09:10:18.904Z,31.46
2019-04-16T09:11:22.628Z,31.34
2019-04-16T09:12:11.949Z,31.44
2019-04-16T09:13:14.743Z,31.44
2019-04-16T09:14:11.897Z,31.54
2019-04-16T09:15:11.896Z,31.34
2019-04-16T09:16:11.970Z,31.34
2019-04-16T09:17:12.092Z,31.74
2019-04-16T09:18:11.879Z,31.64
2019-04-16T09:19:11.845Z,31.44
2019-04-16T09:20:11.837Z,31.44
2019-04-16T09:21:11.904Z,31.44
2019-04-16T09:22:15.962Z,31.44
2019-04-16T09:23:11.810Z,31.44
2019-04-16T09:24:11.814Z,31.44
2019-04-16T09:25:13.640Z,31.54
2019-04-16T09:26:15.238Z,31.44
2019-04-16T09:27:13.426Z,31.44
2019-04-16T09:28:24.525Z,31.64
2019-04-16T09:29:11.798Z,31.44
2019-04-16T09:30:16.890Z,31.44
2019-04-16T09:31:11.729Z,31.54
2019-04-16T09:32:11.713Z,31.44
2019-04-16T09:33:11.762Z,31.64
2019-04-16T09:34:11.723Z,31.44
2019-04-16T09:35:18.663Z,31.54
2019-04-16T09:36:11.669Z,31.44
2019-04-16T09:37:11.727Z,31.54
2019-04-16T09:38:13.078Z,31.54
2019-04-16T09:39:11.633Z,31.54
2019-04-16T09:40:17.633Z,31.44
2019-04-16T09:41:11.652Z,31.44
2019-04-16T09:42:11.648Z,31.44
2019-04-16T09:43:17.261Z,31.44
2019-04-16T09:44:11.597Z,31.44
2019-04-16T09:45:14.570Z,31.34
2019-04-16T09:46:20.604Z,31.44
2019-04-16T09:47:11.546Z,31.34
2019-04-16T09:48:11.579Z,31.44
2019-04-16T09:49:11.516Z,31.44
2019-04-16T09:50:11.660Z,31.44
2019-04-16T09:51:11.495Z,31.44
2019-04-16T09:52:11.824Z,31.44
2019-04-16T09:53:11.477Z,31.44
2019-04-16T09:54:13.423Z,31.44
2019-04-16T09:55:11.476Z,31.44
2019-04-16T09:56:11.498Z,31.44
2019-04-16T09:57:11.436Z,31.44
2019-04-16T09:58:11.429Z,31.44
2019-04-16T09:59:18.422Z,31.44
2019-04-16T10:00:11.390Z,31.44
2019-04-16T10:01:11.420Z,31.54
2019-04-16T10:02:11.425Z,31.64
2019-04-16T10:03:11.356Z,31.44
2019-04-16T10:04:11.412Z,31.54
2019-04-16T10:05:11.386Z,31.44
2019-04-16T10:06:11.325Z,31.44
2019-04-16T10:07:12.629Z,31.54
2019-04-16T10:08:12.587Z,31.54
2019-04-16T10:09:11.382Z,31.34
2019-04-16T10:10:11.295Z,31.44
2019-04-16T10:11:11.272Z,31.54
2019-04-16T10:12:11.306Z,31.44
2019-04-16T10:13:11.288Z,31.44
2019-04-16T10:14:11.327Z,31.54
2019-04-16T10:15:11.294Z,31.94
2019-04-16T10:16:13.986Z,31.94
2019-04-16T10:17:11.240Z,31.44
2019-04-16T10:18:11.257Z,31.52
2019-04-16T10:19:11.228Z,31.54
2019-04-16T10:20:11.188Z,31.74
2019-04-16T10:21:11.171Z,31.52
2019-04-16T10:22:34.099Z,31.34
2019-04-16T10:23:11.172Z,31.54
2019-04-16T10:24:13.574Z,31.43
2019-04-16T10:25:11.155Z,31.52
2019-04-16T10:26:11.167Z,31.44
2019-04-16T10:27:11.158Z,31.52
2019-04-16T10:28:11.159Z,31.44
2019-04-16T10:29:11.088Z,31.44
2019-04-16T10:30:11.083Z,31.54
2019-04-16T10:31:11.116Z,31.54
2019-04-16T10:32:11.139Z,31.54
2019-04-16T10:33:11.089Z,31.74
2019-04-16T10:34:11.088Z,31.52
2019-04-16T10:35:11.042Z,31.44
2019-04-16T10:36:11.031Z,31.52
2019-04-16T10:37:11.045Z,31.32
2019-04-16T10:38:13.528Z,31.54
2019-04-16T10:39:11.784Z,31.52
2019-04-16T10:40:11.006Z,31.52
2019-04-16T10:41:11.061Z,31.43
2019-04-16T10:42:10.943Z,31.54
2019-04-16T10:43:14.798Z,31.44
2019-04-16T10:44:10.924Z,31.43
2019-04-16T10:45:10.912Z,31.54
2019-04-16T10:46:10.922Z,31.54
2019-04-16T10:47:12.430Z,31.54
2019-04-16T10:48:10.937Z,31.73
2019-04-16T10:49:10.878Z,31.44
2019-04-16T10:50:10.835Z,31.44
2019-04-16T10:51:15.244Z,31.44
2019-04-16T10:52:10.863Z,31.43
2019-04-16T10:53:10.878Z,31.52
2019-04-16T10:54:10.837Z,31.43
2019-04-16T10:55:12.138Z,31.24
2019-04-16T10:56:10.832Z,31.32
2019-04-16T10:57:10.791Z,31.43
2019-04-16T10:58:11.269Z,31.12
2019-04-16T10:59:10.791Z,31.43
2019-04-16T11:00:10.831Z,31.43
2019-04-16T11:01:10.751Z,31.73
2019-04-16T11:02:11.741Z,31.52
2019-04-16T11:03:10.755Z,31.12
2019-04-16T11:04:10.718Z,31.23
2019-04-16T11:05:10.753Z,31.62
2019-04-16T11:06:12.505Z,31.43
2019-04-16T11:07:10.713Z,31.43
2019-04-16T11:08:10.674Z,31.43
2019-04-16T11:09:10.718Z,31.23
2019-04-16T11:10:11.857Z,31.32
2019-04-16T11:11:10.657Z,30.93
2019-04-16T11:12:10.623Z,31.02
2019-04-16T11:13:10.675Z,31.23
2019-04-16T11:14:10.616Z,30.93
2019-04-16T11:15:11.097Z,31.12
2019-04-16T11:16:10.580Z,31.02
2019-04-16T11:17:10.565Z,31.32
2019-04-16T11:18:10.558Z,31.23
2019-04-16T11:19:10.539Z,31.02
2019-04-16T11:20:10.514Z,31.02
2019-04-16T11:21:10.548Z,31.02
2019-04-16T11:22:10.530Z,31.02
2019-04-16T11:23:10.531Z,31.02
2019-04-16T11:24:12.132Z,31.23
2019-04-16T11:25:10.578Z,31.43
2019-04-16T11:26:10.473Z,30.93
2019-04-16T11:27:10.503Z,30.93
2019-04-16T11:28:13.723Z,31.02
2019-04-16T11:29:10.423Z,31.02
2019-04-16T11:30:11.332Z,31.43
2019-04-16T11:31:10.655Z,31.12
2019-04-16T11:32:10.436Z,31.12
2019-04-16T11:33:10.409Z,30.93
2019-04-16T11:34:10.432Z,31.11
2019-04-16T11:35:13.417Z,31.21
2019-04-16T11:36:18.925Z,31.12
2019-04-16T11:37:10.378Z,30.93
2019-04-16T11:38:10.364Z,31.23
2019-04-16T11:39:10.420Z,31.23
2019-04-16T11:40:10.557Z,30.91
2019-04-16T11:41:10.778Z,31.51
2019-04-16T11:42:10.330Z,31.32
2019-04-16T11:43:10.300Z,31.51
2019-04-16T11:44:15.680Z,31.52
2019-04-16T11:45:10.281Z,30.91
2019-04-16T11:46:10.287Z,31.31
2019-04-16T11:47:10.271Z,30.91
2019-04-16T11:48:10.267Z,31.21
2019-04-16T11:49:10.255Z,31.21
2019-04-16T11:50:10.275Z,31.21
2019-04-16T11:51:10.204Z,31.41
2019-04-16T11:52:10.208Z,31.41
2019-04-16T11:53:10.222Z,31.41
2019-04-16T11:54:11.775Z,31.51
2019-04-16T11:55:10.152Z,31.31
2019-04-16T11:56:10.132Z,31.31
2019-04-16T11:57:12.998Z,31.31
2019-04-16T11:58:10.120Z,31.20
2019-04-16T11:59:10.153Z,31.41
2019-04-16T12:00:10.152Z,31.71
2019-04-16T12:01:10.287Z,31.51
2019-04-16T12:02:10.115Z,31.51
2019-04-16T12:03:10.189Z,31.11
2019-04-16T12:04:10.950Z,31.51
2019-04-16T12:05:10.109Z,31.21
2019-04-16T12:06:10.404Z,31.71
2019-04-16T12:07:10.031Z,31.61
2019-04-16T12:08:10.077Z,31.11
2019-04-16T12:09:10.028Z,31.51
2019-04-16T12:10:10.026Z,31.61
2019-04-16T12:11:10.010Z,31.51
2019-04-16T12:12:10.017Z,31.61
2019-04-16T12:13:09.992Z,31.51
2019-04-16T12:14:12.581Z,31.40
2019-04-16T12:15:09.950Z,31.51
2019-04-16T12:16:09.966Z,31.79
2019-04-16T12:17:09.934Z,31.49
2019-04-16T12:18:10.001Z,31.90
2019-04-16T12:19:09.954Z,31.79
2019-04-16T12:20:09.890Z,31.70
2019-04-16T12:21:10.203Z,31.29
2019-04-16T12:22:09.877Z,31.11
2019-04-16T12:23:09.879Z,31.71
2019-04-16T12:24:09.855Z,31.71
2019-04-16T12:25:09.834Z,31.70
2019-04-16T12:26:10.398Z,31.70
2019-04-16T12:27:09.897Z,31.70
2019-04-16T12:28:12.530Z,31.70
2019-04-16T12:29:10.993Z,31.40
2019-04-16T12:30:09.770Z,31.49
2019-04-16T12:31:09.854Z,31.40
2019-04-16T12:32:09.800Z,31.40
2019-04-16T12:33:13.502Z,31.59
2019-04-16T12:34:10.031Z,31.40
2019-04-16T12:35:09.728Z,31.90
2019-04-16T12:36:13.212Z,31.40
2019-04-16T12:37:09.781Z,31.70
2019-04-16T12:38:13.156Z,31.40
2019-04-16T12:39:09.765Z,31.59
2019-04-16T12:40:09.697Z,31.40
2019-04-16T12:41:09.701Z,31.90
2019-04-16T12:42:09.681Z,31.90
2019-04-16T12:43:14.687Z,31.40
2019-04-16T12:44:09.661Z,31.70
2019-04-16T12:45:09.680Z,31.88
2019-04-16T12:46:09.619Z,31.40
2019-04-16T12:47:09.997Z,31.70
2019-04-16T12:48:09.610Z,31.59
2019-04-16T12:49:09.755Z,31.38
2019-04-16T12:50:09.585Z,32.08
2019-04-16T12:51:09.556Z,31.68
2019-04-16T12:52:15.847Z,31.59